sensor_id;sensor_type;location;lat;lon;timestamp;P1;durP1;ratioP1;P2;durP2;ratioP2
5622;SDS011;2833;50.432;10.706;2024-01-30T00:00:31;12.13;;;8.40;;
5622;SDS011;2833;50.432;10.706;2024-01-30T00:02:56;14.63;;;8.07;;
5622;SDS011;2833;50.432;10.706;2024-01-30T00:05:21;11.07;;;7.50;;
5622;SDS011;2833;50.432;10.706;2024-01-30T00:07:46;11.40;;;7.80;;
5622;SDS011;2833;50.432;10.706;2024-01-30T00:10:12;12.37;;;7.17;;
5622;SDS011;2833;50.432;10.706;2024-01-30T00:12:37;11.90;;;7.63;;
5622;SDS011;2833;50.432;10.706;2024-01-30T00:15:02;11.90;;;6.93;;
5622;SDS011;2833;50.432;10.706;2024-01-30T00:17:29;11.50;;;7.40;;
5622;SDS011;2833;50.432;10.706;2024-01-30T00:19:54;11.13;;;7.63;;
5622;SDS011;2833;50.432;10.706;2024-01-30T00:22:19;10.93;;;7.53;;
5622;SDS011;2833;50.432;10.706;2024-01-30T00:24:45;13.70;;;8.60;;
5622;SDS011;2833;50.432;10.706;2024-01-30T00:27:10;13.83;;;9.00;;
5622;SDS011;2833;50.432;10.706;2024-01-30T00:29:35;16.03;;;9.73;;
5622;SDS011;2833;50.432;10.706;2024-01-30T00:32:01;12.93;;;9.07;;
5622;SDS011;2833;50.432;10.706;2024-01-30T00:34:26;21.30;;;9.87;;
5622;SDS011;2833;50.432;10.706;2024-01-30T00:36:51;13.50;;;8.43;;
5622;SDS011;2833;50.432;10.706;2024-01-30T00:39:16;13.57;;;7.60;;
5622;SDS011;2833;50.432;10.706;2024-01-30T00:41:41;13.73;;;7.63;;
5622;SDS011;2833;50.432;10.706;2024-01-30T00:44:06;11.37;;;8.13;;
5622;SDS011;2833;50.432;10.706;2024-01-30T00:46:32;12.10;;;7.60;;
5622;SDS011;2833;50.432;10.706;2024-01-30T00:48:57;12.47;;;7.47;;
5622;SDS011;2833;50.432;10.706;2024-01-30T00:51:22;11.83;;;7.40;;
5622;SDS011;2833;50.432;10.706;2024-01-30T00:53:47;11.30;;;7.67;;
5622;SDS011;2833;50.432;10.706;2024-01-30T00:56:12;16.03;;;8.27;;
5622;SDS011;2833;50.432;10.706;2024-01-30T00:58:38;11.30;;;7.30;;
5622;SDS011;2833;50.432;10.706;2024-01-30T01:01:03;14.93;;;8.57;;
5622;SDS011;2833;50.432;10.706;2024-01-30T01:03:28;11.40;;;7.57;;
5622;SDS011;2833;50.432;10.706;2024-01-30T01:05:54;12.33;;;8.07;;
5622;SDS011;2833;50.432;10.706;2024-01-30T01:08:19;17.30;;;9.00;;
5622;SDS011;2833;50.432;10.706;2024-01-30T01:10:45;15.40;;;9.93;;
5622;SDS011;2833;50.432;10.706;2024-01-30T01:13:10;13.47;;;8.60;;
5622;SDS011;2833;50.432;10.706;2024-01-30T01:15:35;12.13;;;8.00;;
5622;SDS011;2833;50.432;10.706;2024-01-30T01:18:00;10.40;;;7.37;;
5622;SDS011;2833;50.432;10.706;2024-01-30T01:20:25;12.10;;;7.47;;
5622;SDS011;2833;50.432;10.706;2024-01-30T01:22:51;12.97;;;7.80;;
5622;SDS011;2833;50.432;10.706;2024-01-30T01:25:17;11.50;;;7.80;;
5622;SDS011;2833;50.432;10.706;2024-01-30T01:27:42;18.73;;;8.80;;
5622;SDS011;2833;50.432;10.706;2024-01-30T01:30:09;13.43;;;7.80;;
5622;SDS011;2833;50.432;10.706;2024-01-30T01:32:35;13.60;;;7.80;;
5622;SDS011;2833;50.432;10.706;2024-01-30T01:35:01;13.43;;;7.40;;
5622;SDS011;2833;50.432;10.706;2024-01-30T01:37:27;10.47;;;7.40;;
5622;SDS011;2833;50.432;10.706;2024-01-30T01:39:52;12.63;;;8.17;;
5622;SDS011;2833;50.432;10.706;2024-01-30T01:42:17;11.57;;;7.17;;
5622;SDS011;2833;50.432;10.706;2024-01-30T01:44:42;14.00;;;8.40;;
5622;SDS011;2833;50.432;10.706;2024-01-30T01:47:08;12.20;;;7.40;;
5622;SDS011;2833;50.432;10.706;2024-01-30T01:49:33;12.70;;;8.20;;
5622;SDS011;2833;50.432;10.706;2024-01-30T01:51:58;14.50;;;7.63;;
5622;SDS011;2833;50.432;10.706;2024-01-30T01:54:24;12.53;;;7.50;;
5622;SDS011;2833;50.432;10.706;2024-01-30T01:56:50;11.90;;;7.80;;
5622;SDS011;2833;50.432;10.706;2024-01-30T01:59:16;11.20;;;7.10;;
5622;SDS011;2833;50.432;10.706;2024-01-30T02:01:42;10.00;;;7.27;;
5622;SDS011;2833;50.432;10.706;2024-01-30T02:04:08;11.43;;;6.90;;
5622;SDS011;2833;50.432;10.706;2024-01-30T02:06:33;12.57;;;6.80;;
5622;SDS011;2833;50.432;10.706;2024-01-30T02:08:59;10.13;;;6.60;;
5622;SDS011;2833;50.432;10.706;2024-01-30T02:11:24;10.53;;;7.43;;
5622;SDS011;2833;50.432;10.706;2024-01-30T02:13:49;16.83;;;7.87;;
5622;SDS011;2833;50.432;10.706;2024-01-30T02:16:15;11.07;;;7.13;;
5622;SDS011;2833;50.432;10.706;2024-01-30T02:18:40;12.03;;;7.53;;
5622;SDS011;2833;50.432;10.706;2024-01-30T02:21:10;9.87;;;6.90;;
5622;SDS011;2833;50.432;10.706;2024-01-30T02:23:35;11.70;;;7.20;;
5622;SDS011;2833;50.432;10.706;2024-01-30T02:26:01;13.40;;;7.40;;
5622;SDS011;2833;50.432;10.706;2024-01-30T02:28:26;13.80;;;7.20;;
5622;SDS011;2833;50.432;10.706;2024-01-30T02:30:52;11.10;;;7.33;;
5622;SDS011;2833;50.432;10.706;2024-01-30T02:33:17;10.80;;;6.87;;
5622;SDS011;2833;50.432;10.706;2024-01-30T02:35:43;11.50;;;7.00;;
5622;SDS011;2833;50.432;10.706;2024-01-30T02:38:08;13.33;;;7.30;;
5622;SDS011;2833;50.432;10.706;2024-01-30T02:40:33;11.50;;;7.10;;
5622;SDS011;2833;50.432;10.706;2024-01-30T02:42:59;10.33;;;6.93;;
5622;SDS011;2833;50.432;10.706;2024-01-30T02:45:24;11.73;;;7.63;;
5622;SDS011;2833;50.432;10.706;2024-01-30T02:47:49;11.67;;;7.40;;
5622;SDS011;2833;50.432;10.706;2024-01-30T02:50:14;12.30;;;7.03;;
5622;SDS011;2833;50.432;10.706;2024-01-30T02:52:41;8.93;;;6.60;;
5622;SDS011;2833;50.432;10.706;2024-01-30T02:55:08;11.00;;;6.70;;
5622;SDS011;2833;50.432;10.706;2024-01-30T02:57:33;11.97;;;6.83;;
5622;SDS011;2833;50.432;10.706;2024-01-30T02:59:59;10.00;;;6.33;;
5622;SDS011;2833;50.432;10.706;2024-01-30T03:02:24;12.33;;;7.20;;
5622;SDS011;2833;50.432;10.706;2024-01-30T03:04:49;9.27;;;6.90;;
5622;SDS011;2833;50.432;10.706;2024-01-30T03:07:15;14.77;;;7.50;;
5622;SDS011;2833;50.432;10.706;2024-01-30T03:09:41;12.20;;;7.37;;
5622;SDS011;2833;50.432;10.706;2024-01-30T03:12:06;14.97;;;7.27;;
5622;SDS011;2833;50.432;10.706;2024-01-30T03:14:31;12.17;;;7.07;;
5622;SDS011;2833;50.432;10.706;2024-01-30T03:16:57;12.80;;;7.20;;
5622;SDS011;2833;50.432;10.706;2024-01-30T03:19:22;10.50;;;7.60;;
5622;SDS011;2833;50.432;10.706;2024-01-30T03:21:47;9.70;;;7.00;;
5622;SDS011;2833;50.432;10.706;2024-01-30T03:24:12;10.70;;;7.20;;
5622;SDS011;2833;50.432;10.706;2024-01-30T03:26:37;15.27;;;7.20;;
5622;SDS011;2833;50.432;10.706;2024-01-30T03:29:03;15.27;;;8.10;;
5622;SDS011;2833;50.432;10.706;2024-01-30T03:31:28;13.27;;;6.43;;
5622;SDS011;2833;50.432;10.706;2024-01-30T03:33:53;12.23;;;7.57;;
5622;SDS011;2833;50.432;10.706;2024-01-30T03:36:18;12.30;;;7.20;;
5622;SDS011;2833;50.432;10.706;2024-01-30T03:38:43;16.03;;;7.60;;
5622;SDS011;2833;50.432;10.706;2024-01-30T03:41:09;11.87;;;7.23;;
5622;SDS011;2833;50.432;10.706;2024-01-30T03:43:35;10.83;;;7.20;;
5622;SDS011;2833;50.432;10.706;2024-01-30T03:46:00;11.20;;;6.80;;
5622;SDS011;2833;50.432;10.706;2024-01-30T03:48:26;13.93;;;7.20;;
5622;SDS011;2833;50.432;10.706;2024-01-30T03:50:51;11.93;;;7.73;;
5622;SDS011;2833;50.432;10.706;2024-01-30T03:53:16;12.23;;;6.87;;
5622;SDS011;2833;50.432;10.706;2024-01-30T03:55:42;11.83;;;6.70;;
5622;SDS011;2833;50.432;10.706;2024-01-30T03:58:07;12.20;;;7.03;;
5622;SDS011;2833;50.432;10.706;2024-01-30T04:00:32;14.67;;;7.50;;
5622;SDS011;2833;50.432;10.706;2024-01-30T04:02:57;10.97;;;6.73;;
5622;SDS011;2833;50.432;10.706;2024-01-30T04:05:22;10.80;;;6.80;;
5622;SDS011;2833;50.432;10.706;2024-01-30T04:07:47;10.50;;;6.53;;
5622;SDS011;2833;50.432;10.706;2024-01-30T04:10:13;12.10;;;6.67;;
5622;SDS011;2833;50.432;10.706;2024-01-30T04:12:38;10.90;;;6.97;;
5622;SDS011;2833;50.432;10.706;2024-01-30T04:15:03;15.23;;;6.77;;
5622;SDS011;2833;50.432;10.706;2024-01-30T04:17:28;12.70;;;6.77;;
5622;SDS011;2833;50.432;10.706;2024-01-30T04:19:54;11.10;;;6.73;;
5622;SDS011;2833;50.432;10.706;2024-01-30T04:22:19;9.43;;;6.33;;
5622;SDS011;2833;50.432;10.706;2024-01-30T04:24:44;10.63;;;6.50;;
5622;SDS011;2833;50.432;10.706;2024-01-30T04:27:10;11.23;;;6.87;;
5622;SDS011;2833;50.432;10.706;2024-01-30T04:29:35;14.00;;;6.80;;
5622;SDS011;2833;50.432;10.706;2024-01-30T04:32:00;13.80;;;6.93;;
5622;SDS011;2833;50.432;10.706;2024-01-30T04:34:25;14.30;;;7.00;;
5622;SDS011;2833;50.432;10.706;2024-01-30T04:36:50;12.33;;;7.30;;
5622;SDS011;2833;50.432;10.706;2024-01-30T04:39:15;10.90;;;6.73;;
5622;SDS011;2833;50.432;10.706;2024-01-30T04:41:41;10.83;;;6.93;;
5622;SDS011;2833;50.432;10.706;2024-01-30T04:44:06;12.10;;;7.43;;
5622;SDS011;2833;50.432;10.706;2024-01-30T04:46:31;12.57;;;6.67;;
5622;SDS011;2833;50.432;10.706;2024-01-30T04:48:59;13.03;;;7.23;;
5622;SDS011;2833;50.432;10.706;2024-01-30T04:51:24;11.90;;;6.70;;
5622;SDS011;2833;50.432;10.706;2024-01-30T04:53:49;11.03;;;7.07;;
5622;SDS011;2833;50.432;10.706;2024-01-30T04:56:14;10.90;;;6.90;;
5622;SDS011;2833;50.432;10.706;2024-01-30T04:58:39;14.70;;;7.00;;
5622;SDS011;2833;50.432;10.706;2024-01-30T05:01:04;11.40;;;7.03;;
5622;SDS011;2833;50.432;10.706;2024-01-30T05:03:32;11.90;;;7.23;;
5622;SDS011;2833;50.432;10.706;2024-01-30T05:05:57;8.57;;;6.10;;
5622;SDS011;2833;50.432;10.706;2024-01-30T05:08:23;12.13;;;7.13;;
5622;SDS011;2833;50.432;10.706;2024-01-30T05:10:48;14.87;;;7.00;;
5622;SDS011;2833;50.432;10.706;2024-01-30T05:13:13;14.70;;;7.87;;
5622;SDS011;2833;50.432;10.706;2024-01-30T05:15:38;13.10;;;7.10;;
5622;SDS011;2833;50.432;10.706;2024-01-30T05:18:04;9.27;;;6.60;;
5622;SDS011;2833;50.432;10.706;2024-01-30T05:20:29;16.03;;;7.60;;
5622;SDS011;2833;50.432;10.706;2024-01-30T05:22:54;11.90;;;7.10;;
5622;SDS011;2833;50.432;10.706;2024-01-30T05:25:19;11.67;;;7.43;;
5622;SDS011;2833;50.432;10.706;2024-01-30T05:27:45;12.40;;;7.13;;
5622;SDS011;2833;50.432;10.706;2024-01-30T05:30:10;13.47;;;7.17;;
5622;SDS011;2833;50.432;10.706;2024-01-30T05:32:35;10.40;;;6.70;;
5622;SDS011;2833;50.432;10.706;2024-01-30T05:35:00;10.27;;;6.40;;
5622;SDS011;2833;50.432;10.706;2024-01-30T05:37:26;12.97;;;9.07;;
5622;SDS011;2833;50.432;10.706;2024-01-30T05:39:51;15.57;;;10.13;;
5622;SDS011;2833;50.432;10.706;2024-01-30T05:42:16;17.97;;;10.50;;
5622;SDS011;2833;50.432;10.706;2024-01-30T05:44:42;15.17;;;9.70;;
5622;SDS011;2833;50.432;10.706;2024-01-30T05:47:07;13.83;;;8.57;;
5622;SDS011;2833;50.432;10.706;2024-01-30T05:49:32;15.93;;;8.40;;
5622;SDS011;2833;50.432;10.706;2024-01-30T05:51:57;11.93;;;8.00;;
5622;SDS011;2833;50.432;10.706;2024-01-30T05:54:22;21.50;;;10.67;;
5622;SDS011;2833;50.432;10.706;2024-01-30T05:56:48;16.70;;;9.20;;
5622;SDS011;2833;50.432;10.706;2024-01-30T05:59:13;12.23;;;7.20;;
5622;SDS011;2833;50.432;10.706;2024-01-30T06:01:38;14.17;;;8.73;;
5622;SDS011;2833;50.432;10.706;2024-01-30T06:04:09;15.17;;;8.70;;
5622;SDS011;2833;50.432;10.706;2024-01-30T06:06:35;15.80;;;8.37;;
5622;SDS011;2833;50.432;10.706;2024-01-30T06:09:00;22.17;;;11.10;;
5622;SDS011;2833;50.432;10.706;2024-01-30T06:11:25;27.23;;;13.40;;
5622;SDS011;2833;50.432;10.706;2024-01-30T06:13:50;27.80;;;13.13;;
5622;SDS011;2833;50.432;10.706;2024-01-30T06:16:15;27.30;;;13.13;;
5622;SDS011;2833;50.432;10.706;2024-01-30T06:18:41;69.67;;;30.27;;
5622;SDS011;2833;50.432;10.706;2024-01-30T06:21:06;29.87;;;15.83;;
5622;SDS011;2833;50.432;10.706;2024-01-30T06:23:31;15.63;;;9.10;;
5622;SDS011;2833;50.432;10.706;2024-01-30T06:25:56;13.20;;;7.77;;
5622;SDS011;2833;50.432;10.706;2024-01-30T06:28:21;12.50;;;7.60;;
5622;SDS011;2833;50.432;10.706;2024-01-30T06:30:47;11.73;;;7.20;;
5622;SDS011;2833;50.432;10.706;2024-01-30T06:33:12;13.37;;;6.73;;
5622;SDS011;2833;50.432;10.706;2024-01-30T06:35:38;12.03;;;6.53;;
5622;SDS011;2833;50.432;10.706;2024-01-30T06:38:05;16.90;;;7.57;;
5622;SDS011;2833;50.432;10.706;2024-01-30T06:40:30;19.57;;;11.53;;
5622;SDS011;2833;50.432;10.706;2024-01-30T06:42:55;21.87;;;11.43;;
5622;SDS011;2833;50.432;10.706;2024-01-30T06:45:20;20.60;;;11.67;;
5622;SDS011;2833;50.432;10.706;2024-01-30T06:47:45;23.90;;;13.63;;
5622;SDS011;2833;50.432;10.706;2024-01-30T06:50:11;23.13;;;12.40;;
5622;SDS011;2833;50.432;10.706;2024-01-30T06:52:36;18.93;;;10.00;;
5622;SDS011;2833;50.432;10.706;2024-01-30T06:55:01;16.90;;;9.80;;
5622;SDS011;2833;50.432;10.706;2024-01-30T06:57:26;19.23;;;10.50;;
5622;SDS011;2833;50.432;10.706;2024-01-30T06:59:53;19.47;;;10.67;;
5622;SDS011;2833;50.432;10.706;2024-01-30T07:02:18;16.27;;;9.90;;
5622;SDS011;2833;50.432;10.706;2024-01-30T07:04:43;19.67;;;10.00;;
5622;SDS011;2833;50.432;10.706;2024-01-30T07:07:08;16.00;;;9.90;;
5622;SDS011;2833;50.432;10.706;2024-01-30T07:09:37;11.47;;;8.30;;
5622;SDS011;2833;50.432;10.706;2024-01-30T07:12:02;13.73;;;7.77;;
5622;SDS011;2833;50.432;10.706;2024-01-30T07:14:28;21.67;;;9.80;;
5622;SDS011;2833;50.432;10.706;2024-01-30T07:16:53;17.67;;;11.00;;
5622;SDS011;2833;50.432;10.706;2024-01-30T07:19:18;14.47;;;9.17;;
5622;SDS011;2833;50.432;10.706;2024-01-30T07:21:43;16.70;;;10.10;;
5622;SDS011;2833;50.432;10.706;2024-01-30T07:24:09;14.57;;;9.43;;
5622;SDS011;2833;50.432;10.706;2024-01-30T07:26:34;16.10;;;9.50;;
5622;SDS011;2833;50.432;10.706;2024-01-30T07:29:00;11.80;;;7.70;;
5622;SDS011;2833;50.432;10.706;2024-01-30T07:31:26;14.70;;;8.33;;
5622;SDS011;2833;50.432;10.706;2024-01-30T07:33:51;12.80;;;8.20;;
5622;SDS011;2833;50.432;10.706;2024-01-30T07:36:16;12.17;;;7.60;;
5622;SDS011;2833;50.432;10.706;2024-01-30T07:38:41;13.90;;;8.10;;
5622;SDS011;2833;50.432;10.706;2024-01-30T07:41:06;14.43;;;8.33;;
5622;SDS011;2833;50.432;10.706;2024-01-30T07:43:32;13.33;;;8.00;;
5622;SDS011;2833;50.432;10.706;2024-01-30T07:45:58;10.93;;;7.20;;
5622;SDS011;2833;50.432;10.706;2024-01-30T07:48:24;9.63;;;6.00;;
5622;SDS011;2833;50.432;10.706;2024-01-30T07:50:49;12.13;;;6.73;;
5622;SDS011;2833;50.432;10.706;2024-01-30T07:53:15;13.00;;;6.93;;
5622;SDS011;2833;50.432;10.706;2024-01-30T07:55:40;11.63;;;7.43;;
5622;SDS011;2833;50.432;10.706;2024-01-30T07:58:06;15.60;;;8.10;;
5622;SDS011;2833;50.432;10.706;2024-01-30T08:00:31;14.70;;;8.43;;
5622;SDS011;2833;50.432;10.706;2024-01-30T08:02:57;15.90;;;9.40;;
5622;SDS011;2833;50.432;10.706;2024-01-30T08:05:22;13.17;;;8.70;;
5622;SDS011;2833;50.432;10.706;2024-01-30T08:07:48;15.50;;;9.67;;
5622;SDS011;2833;50.432;10.706;2024-01-30T08:10:14;14.70;;;9.13;;
5622;SDS011;2833;50.432;10.706;2024-01-30T08:12:39;14.83;;;10.10;;
5622;SDS011;2833;50.432;10.706;2024-01-30T08:15:04;21.47;;;11.57;;
5622;SDS011;2833;50.432;10.706;2024-01-30T08:17:30;16.27;;;10.80;;
5622;SDS011;2833;50.432;10.706;2024-01-30T08:19:55;26.97;;;13.77;;
5622;SDS011;2833;50.432;10.706;2024-01-30T08:22:20;24.87;;;13.07;;
5622;SDS011;2833;50.432;10.706;2024-01-30T08:24:45;20.00;;;12.30;;
5622;SDS011;2833;50.432;10.706;2024-01-30T08:27:10;20.53;;;11.30;;
5622;SDS011;2833;50.432;10.706;2024-01-30T08:29:37;19.67;;;10.17;;
5622;SDS011;2833;50.432;10.706;2024-01-30T08:32:02;15.33;;;9.93;;
5622;SDS011;2833;50.432;10.706;2024-01-30T08:34:27;15.13;;;8.70;;
5622;SDS011;2833;50.432;10.706;2024-01-30T08:36:52;15.60;;;8.70;;
5622;SDS011;2833;50.432;10.706;2024-01-30T08:39:18;17.13;;;8.50;;
5622;SDS011;2833;50.432;10.706;2024-01-30T08:41:43;21.50;;;11.10;;
5622;SDS011;2833;50.432;10.706;2024-01-30T08:44:08;36.90;;;17.60;;
5622;SDS011;2833;50.432;10.706;2024-01-30T08:46:35;33.57;;;14.27;;
5622;SDS011;2833;50.432;10.706;2024-01-30T08:49:01;16.60;;;9.50;;
5622;SDS011;2833;50.432;10.706;2024-01-30T08:51:26;18.10;;;9.10;;
5622;SDS011;2833;50.432;10.706;2024-01-30T08:53:51;14.00;;;8.57;;
5622;SDS011;2833;50.432;10.706;2024-01-30T08:56:17;13.90;;;8.33;;
5622;SDS011;2833;50.432;10.706;2024-01-30T08:58:43;16.27;;;9.00;;
5622;SDS011;2833;50.432;10.706;2024-01-30T09:01:08;32.73;;;19.60;;
5622;SDS011;2833;50.432;10.706;2024-01-30T09:03:33;27.87;;;15.80;;
5622;SDS011;2833;50.432;10.706;2024-01-30T09:05:59;24.10;;;14.00;;
5622;SDS011;2833;50.432;10.706;2024-01-30T09:08:24;24.23;;;12.90;;
5622;SDS011;2833;50.432;10.706;2024-01-30T09:10:49;23.80;;;13.40;;
5622;SDS011;2833;50.432;10.706;2024-01-30T09:13:15;19.80;;;11.70;;
5622;SDS011;2833;50.432;10.706;2024-01-30T09:15:40;26.87;;;12.20;;
5622;SDS011;2833;50.432;10.706;2024-01-30T09:18:05;20.50;;;10.50;;
5622;SDS011;2833;50.432;10.706;2024-01-30T09:20:31;18.07;;;10.70;;
5622;SDS011;2833;50.432;10.706;2024-01-30T09:22:56;16.07;;;10.80;;
5622;SDS011;2833;50.432;10.706;2024-01-30T09:25:21;18.50;;;10.10;;
5622;SDS011;2833;50.432;10.706;2024-01-30T09:27:46;18.00;;;11.20;;
5622;SDS011;2833;50.432;10.706;2024-01-30T09:30:12;17.87;;;10.30;;
5622;SDS011;2833;50.432;10.706;2024-01-30T09:32:37;16.90;;;9.87;;
5622;SDS011;2833;50.432;10.706;2024-01-30T09:35:02;14.30;;;8.47;;
5622;SDS011;2833;50.432;10.706;2024-01-30T09:37:27;19.10;;;10.03;;
5622;SDS011;2833;50.432;10.706;2024-01-30T09:39:52;19.00;;;10.40;;
5622;SDS011;2833;50.432;10.706;2024-01-30T09:42:21;20.80;;;10.27;;
5622;SDS011;2833;50.432;10.706;2024-01-30T09:44:50;16.87;;;10.53;;
5622;SDS011;2833;50.432;10.706;2024-01-30T09:47:16;23.70;;;13.80;;
5622;SDS011;2833;50.432;10.706;2024-01-30T09:49:42;24.77;;;14.60;;
5622;SDS011;2833;50.432;10.706;2024-01-30T09:52:08;19.17;;;11.83;;
5622;SDS011;2833;50.432;10.706;2024-01-30T09:54:33;22.73;;;12.40;;
5622;SDS011;2833;50.432;10.706;2024-01-30T09:56:58;22.07;;;12.30;;
5622;SDS011;2833;50.432;10.706;2024-01-30T09:59:24;19.73;;;11.13;;
5622;SDS011;2833;50.432;10.706;2024-01-30T10:01:50;28.70;;;15.20;;
5622;SDS011;2833;50.432;10.706;2024-01-30T10:04:15;24.97;;;14.43;;
5622;SDS011;2833;50.432;10.706;2024-01-30T10:06:40;20.67;;;11.60;;
5622;SDS011;2833;50.432;10.706;2024-01-30T10:09:06;25.10;;;10.90;;
5622;SDS011;2833;50.432;10.706;2024-01-30T10:11:31;18.90;;;10.93;;
5622;SDS011;2833;50.432;10.706;2024-01-30T10:13:57;17.90;;;10.20;;
5622;SDS011;2833;50.432;10.706;2024-01-30T10:16:22;21.57;;;10.97;;
5622;SDS011;2833;50.432;10.706;2024-01-30T10:18:47;15.33;;;10.60;;
5622;SDS011;2833;50.432;10.706;2024-01-30T10:21:12;20.63;;;9.80;;
5622;SDS011;2833;50.432;10.706;2024-01-30T10:23:38;17.43;;;9.83;;
5622;SDS011;2833;50.432;10.706;2024-01-30T10:26:04;22.60;;;11.90;;
5622;SDS011;2833;50.432;10.706;2024-01-30T10:28:29;17.23;;;9.43;;
5622;SDS011;2833;50.432;10.706;2024-01-30T10:31:01;18.80;;;10.60;;
5622;SDS011;2833;50.432;10.706;2024-01-30T10:33:28;21.60;;;11.00;;
5622;SDS011;2833;50.432;10.706;2024-01-30T10:35:58;19.03;;;10.57;;
5622;SDS011;2833;50.432;10.706;2024-01-30T10:38:25;20.83;;;11.07;;
5622;SDS011;2833;50.432;10.706;2024-01-30T10:40:52;22.30;;;11.40;;
5622;SDS011;2833;50.432;10.706;2024-01-30T10:43:20;17.07;;;10.90;;
5622;SDS011;2833;50.432;10.706;2024-01-30T10:45:46;22.03;;;11.60;;
5622;SDS011;2833;50.432;10.706;2024-01-30T10:48:14;21.27;;;10.87;;
5622;SDS011;2833;50.432;10.706;2024-01-30T10:50:41;23.53;;;10.67;;
5622;SDS011;2833;50.432;10.706;2024-01-30T10:53:07;16.73;;;9.90;;
5622;SDS011;2833;50.432;10.706;2024-01-30T10:55:33;18.50;;;10.20;;
5622;SDS011;2833;50.432;10.706;2024-01-30T10:57:58;22.37;;;11.10;;
5622;SDS011;2833;50.432;10.706;2024-01-30T11:00:24;17.40;;;10.67;;
5622;SDS011;2833;50.432;10.706;2024-01-30T11:02:51;17.03;;;10.17;;
5622;SDS011;2833;50.432;10.706;2024-01-30T11:05:23;13.87;;;7.80;;
5622;SDS011;2833;50.432;10.706;2024-01-30T11:07:48;16.97;;;10.23;;
5622;SDS011;2833;50.432;10.706;2024-01-30T11:10:14;17.00;;;10.70;;
5622;SDS011;2833;50.432;10.706;2024-01-30T11:12:40;17.07;;;9.90;;
5622;SDS011;2833;50.432;10.706;2024-01-30T11:15:15;20.43;;;11.37;;
5622;SDS011;2833;50.432;10.706;2024-01-30T11:22:44;19.77;;;11.03;;
5622;SDS011;2833;50.432;10.706;2024-01-30T11:25:13;18.67;;;10.80;;
5622;SDS011;2833;50.432;10.706;2024-01-30T11:27:39;15.33;;;9.80;;
5622;SDS011;2833;50.432;10.706;2024-01-30T11:30:05;17.37;;;10.63;;
5622;SDS011;2833;50.432;10.706;2024-01-30T11:32:30;19.53;;;10.87;;
5622;SDS011;2833;50.432;10.706;2024-01-30T11:34:55;15.33;;;10.07;;
5622;SDS011;2833;50.432;10.706;2024-01-30T11:37:21;25.13;;;10.10;;
5622;SDS011;2833;50.432;10.706;2024-01-30T11:39:46;17.10;;;10.00;;
5622;SDS011;2833;50.432;10.706;2024-01-30T11:42:13;14.70;;;10.03;;
5622;SDS011;2833;50.432;10.706;2024-01-30T11:44:38;20.47;;;10.57;;
5622;SDS011;2833;50.432;10.706;2024-01-30T11:47:03;19.80;;;10.03;;
5622;SDS011;2833;50.432;10.706;2024-01-30T11:49:28;17.17;;;11.13;;
5622;SDS011;2833;50.432;10.706;2024-01-30T11:51:54;15.17;;;10.10;;
5622;SDS011;2833;50.432;10.706;2024-01-30T11:54:19;17.53;;;9.10;;
5622;SDS011;2833;50.432;10.706;2024-01-30T11:56:44;14.10;;;8.97;;
5622;SDS011;2833;50.432;10.706;2024-01-30T11:59:09;18.97;;;9.90;;
5622;SDS011;2833;50.432;10.706;2024-01-30T12:01:35;15.07;;;8.80;;
5622;SDS011;2833;50.432;10.706;2024-01-30T12:04:00;14.80;;;8.60;;
5622;SDS011;2833;50.432;10.706;2024-01-30T12:06:25;14.30;;;8.90;;
5622;SDS011;2833;50.432;10.706;2024-01-30T12:09:03;15.10;;;9.93;;
5622;SDS011;2833;50.432;10.706;2024-01-30T12:11:44;18.17;;;9.80;;
5622;SDS011;2833;50.432;10.706;2024-01-30T12:14:10;16.47;;;10.53;;
5622;SDS011;2833;50.432;10.706;2024-01-30T12:16:36;19.27;;;12.07;;
5622;SDS011;2833;50.432;10.706;2024-01-30T12:19:01;34.40;;;17.90;;
5622;SDS011;2833;50.432;10.706;2024-01-30T12:21:27;19.90;;;13.00;;
5622;SDS011;2833;50.432;10.706;2024-01-30T12:23:52;15.93;;;10.27;;
5622;SDS011;2833;50.432;10.706;2024-01-30T12:26:17;20.67;;;11.93;;
5622;SDS011;2833;50.432;10.706;2024-01-30T12:28:49;31.33;;;17.53;;
5622;SDS011;2833;50.432;10.706;2024-01-30T12:31:15;21.23;;;13.90;;
5622;SDS011;2833;50.432;10.706;2024-01-30T12:33:40;23.93;;;14.30;;
5622;SDS011;2833;50.432;10.706;2024-01-30T12:36:05;19.83;;;12.50;;
5622;SDS011;2833;50.432;10.706;2024-01-30T12:38:31;35.17;;;16.00;;
5622;SDS011;2833;50.432;10.706;2024-01-30T12:40:56;28.50;;;14.23;;
5622;SDS011;2833;50.432;10.706;2024-01-30T12:43:24;29.00;;;15.77;;
5622;SDS011;2833;50.432;10.706;2024-01-30T12:45:49;20.50;;;11.30;;
5622;SDS011;2833;50.432;10.706;2024-01-30T12:48:15;19.83;;;11.20;;
5622;SDS011;2833;50.432;10.706;2024-01-30T12:50:40;20.87;;;11.80;;
5622;SDS011;2833;50.432;10.706;2024-01-30T12:53:06;18.57;;;10.97;;
5622;SDS011;2833;50.432;10.706;2024-01-30T12:55:31;22.27;;;13.00;;
5622;SDS011;2833;50.432;10.706;2024-01-30T12:57:56;25.27;;;15.97;;
5622;SDS011;2833;50.432;10.706;2024-01-30T13:00:22;21.47;;;13.57;;
5622;SDS011;2833;50.432;10.706;2024-01-30T13:02:47;20.00;;;10.70;;
5622;SDS011;2833;50.432;10.706;2024-01-30T13:05:13;15.40;;;10.77;;
5622;SDS011;2833;50.432;10.706;2024-01-30T13:07:38;20.30;;;10.90;;
5622;SDS011;2833;50.432;10.706;2024-01-30T13:10:03;16.23;;;10.10;;
5622;SDS011;2833;50.432;10.706;2024-01-30T13:12:29;20.47;;;10.03;;
5622;SDS011;2833;50.432;10.706;2024-01-30T13:14:54;18.27;;;10.30;;
5622;SDS011;2833;50.432;10.706;2024-01-30T13:17:20;16.67;;;9.60;;
5622;SDS011;2833;50.432;10.706;2024-01-30T13:19:45;17.03;;;9.50;;
5622;SDS011;2833;50.432;10.706;2024-01-30T13:22:10;17.20;;;10.77;;
5622;SDS011;2833;50.432;10.706;2024-01-30T13:24:35;19.50;;;11.27;;
5622;SDS011;2833;50.432;10.706;2024-01-30T13:27:00;21.37;;;12.40;;
5622;SDS011;2833;50.432;10.706;2024-01-30T13:29:26;19.03;;;10.57;;
5622;SDS011;2833;50.432;10.706;2024-01-30T13:31:51;23.73;;;11.97;;
5622;SDS011;2833;50.432;10.706;2024-01-30T13:34:16;22.67;;;11.70;;
5622;SDS011;2833;50.432;10.706;2024-01-30T13:36:41;30.50;;;11.63;;
5622;SDS011;2833;50.432;10.706;2024-01-30T13:39:08;21.27;;;12.00;;
5622;SDS011;2833;50.432;10.706;2024-01-30T13:41:35;21.83;;;11.57;;
5622;SDS011;2833;50.432;10.706;2024-01-30T13:44:00;18.43;;;11.40;;
5622;SDS011;2833;50.432;10.706;2024-01-30T13:46:28;19.03;;;11.70;;
5622;SDS011;2833;50.432;10.706;2024-01-30T13:48:53;19.60;;;11.60;;
5622;SDS011;2833;50.432;10.706;2024-01-30T13:51:18;21.83;;;12.00;;
5622;SDS011;2833;50.432;10.706;2024-01-30T13:53:44;18.30;;;11.83;;
5622;SDS011;2833;50.432;10.706;2024-01-30T13:56:09;25.27;;;15.73;;
5622;SDS011;2833;50.432;10.706;2024-01-30T13:58:34;21.17;;;12.70;;
5622;SDS011;2833;50.432;10.706;2024-01-30T14:01:01;27.03;;;15.60;;
5622;SDS011;2833;50.432;10.706;2024-01-30T14:03:26;23.27;;;11.80;;
5622;SDS011;2833;50.432;10.706;2024-01-30T14:05:51;22.20;;;13.47;;
5622;SDS011;2833;50.432;10.706;2024-01-30T14:08:16;23.70;;;12.90;;
5622;SDS011;2833;50.432;10.706;2024-01-30T14:10:42;19.40;;;12.17;;
5622;SDS011;2833;50.432;10.706;2024-01-30T14:13:07;29.30;;;14.90;;
5622;SDS011;2833;50.432;10.706;2024-01-30T14:15:32;23.87;;;13.77;;
5622;SDS011;2833;50.432;10.706;2024-01-30T14:17:57;23.37;;;12.30;;
5622;SDS011;2833;50.432;10.706;2024-01-30T14:20:23;26.73;;;15.23;;
5622;SDS011;2833;50.432;10.706;2024-01-30T14:22:48;22.37;;;12.90;;
5622;SDS011;2833;50.432;10.706;2024-01-30T14:25:13;25.63;;;13.37;;
5622;SDS011;2833;50.432;10.706;2024-01-30T14:27:38;21.43;;;12.83;;
5622;SDS011;2833;50.432;10.706;2024-01-30T14:30:03;28.03;;;13.37;;
5622;SDS011;2833;50.432;10.706;2024-01-30T14:32:29;24.10;;;14.23;;
5622;SDS011;2833;50.432;10.706;2024-01-30T14:34:54;28.00;;;14.80;;
5622;SDS011;2833;50.432;10.706;2024-01-30T14:37:20;22.17;;;12.13;;